sensor_id;sensor_type;location;lat;lon;timestamp;temperature;humidity
20568;DHT22;10442;49.932;11.592;2023-10-13T00:00:34;19.00;78.80
20568;DHT22;10442;49.932;11.592;2023-10-13T00:03:04;19.00;78.90
20568;DHT22;10442;49.932;11.592;2023-10-13T00:05:33;19.00;78.90
20568;DHT22;10442;49.932;11.592;2023-10-13T00:08:02;19.00;78.90
20568;DHT22;10442;49.932;11.592;2023-10-13T00:10:30;19.00;78.80
20568;DHT22;10442;49.932;11.592;2023-10-13T00:12:58;19.00;79.50
20568;DHT22;10442;49.932;11.592;2023-10-13T00:15:43;19.00;78.70
20568;DHT22;10442;49.932;11.592;2023-10-13T00:18:29;19.00;78.80
20568;DHT22;10442;49.932;11.592;2023-10-13T00:21:02;18.90;78.90
20568;DHT22;10442;49.932;11.592;2023-10-13T00:23:59;18.90;78.80
20568;DHT22;10442;49.932;11.592;2023-10-13T00:26:33;18.90;78.90
20568;DHT22;10442;49.932;11.592;2023-10-13T00:29:04;18.90;79.00
20568;DHT22;10442;49.932;11.592;2023-10-13T00:31:39;18.80;79.00
20568;DHT22;10442;49.932;11.592;2023-10-13T00:34:12;18.80;79.10
20568;DHT22;10442;49.932;11.592;2023-10-13T00:36:52;18.80;79.10
20568;DHT22;10442;49.932;11.592;2023-10-13T00:39:38;18.80;79.10
20568;DHT22;10442;49.932;11.592;2023-10-13T00:42:14;18.80;79.10
20568;DHT22;10442;49.932;11.592;2023-10-13T00:44:47;18.80;79.20
20568;DHT22;10442;49.932;11.592;2023-10-13T00:47:21;18.80;79.20
20568;DHT22;10442;49.932;11.592;2023-10-13T00:50:05;18.80;79.30
20568;DHT22;10442;49.932;11.592;2023-10-13T00:52:35;18.80;79.30
20568;DHT22;10442;49.932;11.592;2023-10-13T00:55:04;18.70;79.30
20568;DHT22;10442;49.932;11.592;2023-10-13T00:57:32;18.70;79.20
20568;DHT22;10442;49.932;11.592;2023-10-13T01:00:01;18.70;79.20
20568;DHT22;10442;49.932;11.592;2023-10-13T01:02:40;18.70;79.30
20568;DHT22;10442;49.932;11.592;2023-10-13T01:05:08;18.70;79.20
20568;DHT22;10442;49.932;11.592;2023-10-13T01:07:47;18.70;79.20
20568;DHT22;10442;49.932;11.592;2023-10-13T01:10:22;18.70;79.20
20568;DHT22;10442;49.932;11.592;2023-10-13T01:13:00;18.60;79.20
20568;DHT22;10442;49.932;11.592;2023-10-13T01:15:30;18.60;79.20
20568;DHT22;10442;49.932;11.592;2023-10-13T01:18:09;18.60;79.40
20568;DHT22;10442;49.932;11.592;2023-10-13T01:20:39;18.60;79.50
20568;DHT22;10442;49.932;11.592;2023-10-13T01:23:13;18.50;79.20
20568;DHT22;10442;49.932;11.592;2023-10-13T01:25:46;18.50;79.20
20568;DHT22;10442;49.932;11.592;2023-10-13T01:28:16;18.50;79.20
20568;DHT22;10442;49.932;11.592;2023-10-13T01:30:44;18.50;79.40
20568;DHT22;10442;49.932;11.592;2023-10-13T01:33:18;18.50;79.60
20568;DHT22;10442;49.932;11.592;2023-10-13T01:35:55;18.40;79.70
20568;DHT22;10442;49.932;11.592;2023-10-13T01:38:25;18.40;79.90
20568;DHT22;10442;49.932;11.592;2023-10-13T01:41:00;18.40;80.00
20568;DHT22;10442;49.932;11.592;2023-10-13T01:43:31;18.40;80.10
20568;DHT22;10442;49.932;11.592;2023-10-13T01:46:00;18.40;80.10
20568;DHT22;10442;49.932;11.592;2023-10-13T01:48:29;18.40;80.10
20568;DHT22;10442;49.932;11.592;2023-10-13T01:50:59;18.40;80.00
20568;DHT22;10442;49.932;11.592;2023-10-13T01:53:32;18.40;80.00
20568;DHT22;10442;49.932;11.592;2023-10-13T01:56:00;18.40;80.10
20568;DHT22;10442;49.932;11.592;2023-10-13T01:58:32;18.40;80.20
20568;DHT22;10442;49.932;11.592;2023-10-13T02:01:01;18.40;80.20
20568;DHT22;10442;49.932;11.592;2023-10-13T02:03:29;18.30;80.10
20568;DHT22;10442;49.932;11.592;2023-10-13T02:05:57;18.40;80.20
20568;DHT22;10442;49.932;11.592;2023-10-13T02:08:33;18.40;80.20
20568;DHT22;10442;49.932;11.592;2023-10-13T02:11:01;18.40;80.30
20568;DHT22;10442;49.932;11.592;2023-10-13T02:13:28;18.40;80.30
20568;DHT22;10442;49.932;11.592;2023-10-13T02:15:57;18.40;80.40
20568;DHT22;10442;49.932;11.592;2023-10-13T02:18:25;18.40;80.60
20568;DHT22;10442;49.932;11.592;2023-10-13T02:21:03;18.40;80.60
20568;DHT22;10442;49.932;11.592;2023-10-13T02:23:40;18.40;80.80
20568;DHT22;10442;49.932;11.592;2023-10-13T02:26:28;18.40;80.80
20568;DHT22;10442;49.932;11.592;2023-10-13T02:29:02;18.50;80.80
20568;DHT22;10442;49.932;11.592;2023-10-13T02:31:39;18.50;81.00
20568;DHT22;10442;49.932;11.592;2023-10-13T02:34:07;18.50;81.00
20568;DHT22;10442;49.932;11.592;2023-10-13T02:36:36;18.50;80.90
20568;DHT22;10442;49.932;11.592;2023-10-13T02:39:04;18.50;80.80
20568;DHT22;10442;49.932;11.592;2023-10-13T02:41:35;18.60;80.80
20568;DHT22;10442;49.932;11.592;2023-10-13T02:44:06;18.60;80.80
20568;DHT22;10442;49.932;11.592;2023-10-13T02:46:34;18.60;80.80
20568;DHT22;10442;49.932;11.592;2023-10-13T02:49:07;18.60;80.80
20568;DHT22;10442;49.932;11.592;2023-10-13T02:51:45;18.60;80.80
20568;DHT22;10442;49.932;11.592;2023-10-13T02:54:12;18.60;80.80
20568;DHT22;10442;49.932;11.592;2023-10-13T02:56:46;18.70;80.90
20568;DHT22;10442;49.932;11.592;2023-10-13T02:59:18;18.70;81.00
20568;DHT22;10442;49.932;11.592;2023-10-13T03:02:02;18.70;80.90
20568;DHT22;10442;49.932;11.592;2023-10-13T03:04:55;18.70;80.90
20568;DHT22;10442;49.932;11.592;2023-10-13T03:07:27;18.80;80.90
20568;DHT22;10442;49.932;11.592;2023-10-13T03:09:58;18.80;80.80
20568;DHT22;10442;49.932;11.592;2023-10-13T03:12:28;18.80;80.80
20568;DHT22;10442;49.932;11.592;2023-10-13T03:15:01;18.80;80.80
20568;DHT22;10442;49.932;11.592;2023-10-13T03:17:57;18.90;80.80
20568;DHT22;10442;49.932;11.592;2023-10-13T03:20:28;18.90;80.80
20568;DHT22;10442;49.932;11.592;2023-10-13T03:22:59;18.90;80.80
20568;DHT22;10442;49.932;11.592;2023-10-13T03:25:26;18.90;80.80
20568;DHT22;10442;49.932;11.592;2023-10-13T03:28:04;18.90;80.70
20568;DHT22;10442;49.932;11.592;2023-10-13T03:30:32;18.90;80.80
20568;DHT22;10442;49.932;11.592;2023-10-13T03:33:07;19.00;80.80
20568;DHT22;10442;49.932;11.592;2023-10-13T03:35:38;19.00;80.70
20568;DHT22;10442;49.932;11.592;2023-10-13T03:38:05;19.00;80.60
20568;DHT22;10442;49.932;11.592;2023-10-13T03:40:49;19.00;80.60
20568;DHT22;10442;49.932;11.592;2023-10-13T03:43:22;19.00;80.60
20568;DHT22;10442;49.932;11.592;2023-10-13T03:45:51;19.00;80.50
20568;DHT22;10442;49.932;11.592;2023-10-13T03:48:30;19.10;80.40
20568;DHT22;10442;49.932;11.592;2023-10-13T03:51:00;19.10;80.40
20568;DHT22;10442;49.932;11.592;2023-10-13T03:53:34;19.10;80.30
20568;DHT22;10442;49.932;11.592;2023-10-13T03:56:04;19.10;80.30
20568;DHT22;10442;49.932;11.592;2023-10-13T03:58:59;19.10;80.20
20568;DHT22;10442;49.932;11.592;2023-10-13T04:01:42;19.00;80.10
20568;DHT22;10442;49.932;11.592;2023-10-13T04:04:16;19.10;80.20
20568;DHT22;10442;49.932;11.592;2023-10-13T04:07:03;19.00;80.20
20568;DHT22;10442;49.932;11.592;2023-10-13T04:09:38;19.00;80.20
20568;DHT22;10442;49.932;11.592;2023-10-13T04:12:14;19.00;80.20
20568;DHT22;10442;49.932;11.592;2023-10-13T04:14:53;19.00;80.30
20568;DHT22;10442;49.932;11.592;2023-10-13T04:17:33;18.90;80.40
20568;DHT22;10442;49.932;11.592;2023-10-13T04:20:09;18.90;80.40
20568;DHT22;10442;49.932;11.592;2023-10-13T04:25:21;18.90;80.60
20568;DHT22;10442;49.932;11.592;2023-10-13T04:28:08;18.90;80.50
20568;DHT22;10442;49.932;11.592;2023-10-13T04:30:50;18.90;80.60
20568;DHT22;10442;49.932;11.592;2023-10-13T04:33:26;18.90;80.60
20568;DHT22;10442;49.932;11.592;2023-10-13T04:36:14;18.90;80.50
20568;DHT22;10442;49.932;11.592;2023-10-13T04:38:51;18.90;80.50
20568;DHT22;10442;49.932;11.592;2023-10-13T04:44:17;18.90;80.50
20568;DHT22;10442;49.932;11.592;2023-10-13T04:46:58;18.90;80.50
20568;DHT22;10442;49.932;11.592;2023-10-13T04:49:27;18.90;80.60
20568;DHT22;10442;49.932;11.592;2023-10-13T04:52:00;18.90;80.60
20568;DHT22;10442;49.932;11.592;2023-10-13T04:54:48;18.90;80.60
20568;DHT22;10442;49.932;11.592;2023-10-13T04:57:20;18.90;80.50
20568;DHT22;10442;49.932;11.592;2023-10-13T05:00:09;18.90;80.60
20568;DHT22;10442;49.932;11.592;2023-10-13T05:02:44;18.90;80.60
20568;DHT22;10442;49.932;11.592;2023-10-13T05:05:27;18.90;80.60
20568;DHT22;10442;49.932;11.592;2023-10-13T05:08:33;18.90;80.60
20568;DHT22;10442;49.932;11.592;2023-10-13T05:11:20;18.90;80.50
20568;DHT22;10442;49.932;11.592;2023-10-13T05:14:06;18.90;80.60
20568;DHT22;10442;49.932;11.592;2023-10-13T05:16:52;18.90;80.60
20568;DHT22;10442;49.932;11.592;2023-10-13T05:19:38;18.90;80.50
20568;DHT22;10442;49.932;11.592;2023-10-13T05:22:24;18.90;80.50
20568;DHT22;10442;49.932;11.592;2023-10-13T05:25:10;19.00;80.40
20568;DHT22;10442;49.932;11.592;2023-10-13T05:27:57;18.90;80.40
20568;DHT22;10442;49.932;11.592;2023-10-13T05:31:02;18.90;80.40
20568;DHT22;10442;49.932;11.592;2023-10-13T05:33:49;18.90;80.40
20568;DHT22;10442;49.932;11.592;2023-10-13T05:36:35;18.90;80.30
20568;DHT22;10442;49.932;11.592;2023-10-13T05:39:22;18.90;80.40
20568;DHT22;10442;49.932;11.592;2023-10-13T05:42:08;18.90;80.40
20568;DHT22;10442;49.932;11.592;2023-10-13T05:44:55;18.90;80.50
20568;DHT22;10442;49.932;11.592;2023-10-13T05:47:51;19.00;80.50
20568;DHT22;10442;49.932;11.592;2023-10-13T05:50:39;19.00;80.50
20568;DHT22;10442;49.932;11.592;2023-10-13T05:53:26;19.00;80.50
20568;DHT22;10442;49.932;11.592;2023-10-13T05:56:11;19.00;80.40
20568;DHT22;10442;49.932;11.592;2023-10-13T05:58:58;19.00;80.40
20568;DHT22;10442;49.932;11.592;2023-10-13T06:01:44;19.00;80.30
20568;DHT22;10442;49.932;11.592;2023-10-13T06:04:32;19.00;80.30
20568;DHT22;10442;49.932;11.592;2023-10-13T06:07:18;19.10;80.20
20568;DHT22;10442;49.932;11.592;2023-10-13T06:10:09;19.10;80.20
20568;DHT22;10442;49.932;11.592;2023-10-13T06:12:55;19.10;80.10
20568;DHT22;10442;49.932;11.592;2023-10-13T06:15:41;19.10;80.10
20568;DHT22;10442;49.932;11.592;2023-10-13T06:18:27;19.20;80.10
20568;DHT22;10442;49.932;11.592;2023-10-13T06:21:13;19.20;80.00
20568;DHT22;10442;49.932;11.592;2023-10-13T06:23:59;19.30;79.90
20568;DHT22;10442;49.932;11.592;2023-10-13T06:26:47;19.30;79.70
20568;DHT22;10442;49.932;11.592;2023-10-13T06:29:33;19.40;79.50
20568;DHT22;10442;49.932;11.592;2023-10-13T06:32:01;19.50;79.40
20568;DHT22;10442;49.932;11.592;2023-10-13T06:34:29;19.50;79.10
20568;DHT22;10442;49.932;11.592;2023-10-13T06:37:13;19.50;78.80
20568;DHT22;10442;49.932;11.592;2023-10-13T06:39:53;19.60;78.70
20568;DHT22;10442;49.932;11.592;2023-10-13T06:42:24;19.60;78.40
20568;DHT22;10442;49.932;11.592;2023-10-13T06:44:57;19.70;78.30
20568;DHT22;10442;49.932;11.592;2023-10-13T06:47:27;19.70;78.20
20568;DHT22;10442;49.932;11.592;2023-10-13T06:49:55;19.70;78.30
20568;DHT22;10442;49.932;11.592;2023-10-13T06:52:24;19.70;78.00
20568;DHT22;10442;49.932;11.592;2023-10-13T06:54:57;19.70;77.80
20568;DHT22;10442;49.932;11.592;2023-10-13T06:57:25;19.70;77.90
20568;DHT22;10442;49.932;11.592;2023-10-13T06:59:54;19.80;77.60
20568;DHT22;10442;49.932;11.592;2023-10-13T07:02:30;19.80;77.70
20568;DHT22;10442;49.932;11.592;2023-10-13T07:05:01;19.90;77.60
20568;DHT22;10442;49.932;11.592;2023-10-13T07:07:35;19.90;77.60
20568;DHT22;10442;49.932;11.592;2023-10-13T07:10:07;20.00;77.50
20568;DHT22;10442;49.932;11.592;2023-10-13T07:12:35;20.00;77.90
20568;DHT22;10442;49.932;11.592;2023-10-13T07:15:03;20.10;78.20
20568;DHT22;10442;49.932;11.592;2023-10-13T07:17:46;20.30;77.80
20568;DHT22;10442;49.932;11.592;2023-10-13T07:20:14;20.50;77.40
20568;DHT22;10442;49.932;11.592;2023-10-13T07:22:43;20.80;77.20
20568;DHT22;10442;49.932;11.592;2023-10-13T07:25:34;21.00;75.90
20568;DHT22;10442;49.932;11.592;2023-10-13T07:28:06;21.20;74.80
20568;DHT22;10442;49.932;11.592;2023-10-13T07:30:36;21.40;74.30
20568;DHT22;10442;49.932;11.592;2023-10-13T07:33:17;21.40;73.60
20568;DHT22;10442;49.932;11.592;2023-10-13T07:35:49;21.50;73.70
20568;DHT22;10442;49.932;11.592;2023-10-13T07:38:27;21.60;73.90
20568;DHT22;10442;49.932;11.592;2023-10-13T07:40:59;21.80;74.30
20568;DHT22;10442;49.932;11.592;2023-10-13T07:43:35;22.20;74.50
20568;DHT22;10442;49.932;11.592;2023-10-13T07:46:05;22.60;73.10
20568;DHT22;10442;49.932;11.592;2023-10-13T07:48:40;22.90;70.50
20568;DHT22;10442;49.932;11.592;2023-10-13T07:51:08;23.20;69.60
20568;DHT22;10442;49.932;11.592;2023-10-13T07:53:40;23.50;68.40
20568;DHT22;10442;49.932;11.592;2023-10-13T07:56:07;23.70;68.30
20568;DHT22;10442;49.932;11.592;2023-10-13T07:58:41;23.90;67.30
20568;DHT22;10442;49.932;11.592;2023-10-13T08:01:31;24.00;66.10
20568;DHT22;10442;49.932;11.592;2023-10-13T08:04:00;24.10;65.00
20568;DHT22;10442;49.932;11.592;2023-10-13T08:06:40;24.00;63.80
20568;DHT22;10442;49.932;11.592;2023-10-13T08:09:09;23.90;63.80
20568;DHT22;10442;49.932;11.592;2023-10-13T08:11:36;23.80;63.40
20568;DHT22;10442;49.932;11.592;2023-10-13T08:14:05;23.60;63.80
20568;DHT22;10442;49.932;11.592;2023-10-13T08:17:08;23.50;64.50
20568;DHT22;10442;49.932;11.592;2023-10-13T08:19:39;23.30;64.50
20568;DHT22;10442;49.932;11.592;2023-10-13T08:22:10;23.30;65.20
20568;DHT22;10442;49.932;11.592;2023-10-13T08:24:48;23.20;65.10
20568;DHT22;10442;49.932;11.592;2023-10-13T08:27:20;23.10;65.60
20568;DHT22;10442;49.932;11.592;2023-10-13T08:30:03;23.10;66.60
20568;DHT22;10442;49.932;11.592;2023-10-13T08:32:49;23.10;65.90
20568;DHT22;10442;49.932;11.592;2023-10-13T08:35:25;23.10;66.50
20568;DHT22;10442;49.932;11.592;2023-10-13T08:38:03;23.10;66.20
20568;DHT22;10442;49.932;11.592;2023-10-13T08:40:59;23.20;65.70
20568;DHT22;10442;49.932;11.592;2023-10-13T08:43:46;23.30;65.50
20568;DHT22;10442;49.932;11.592;2023-10-13T08:46:21;23.40;65.20
20568;DHT22;10442;49.932;11.592;2023-10-13T08:48:59;23.50;65.10
20568;DHT22;10442;49.932;11.592;2023-10-13T08:51:53;23.50;63.90
20568;DHT22;10442;49.932;11.592;2023-10-13T08:54:35;23.50;63.50
20568;DHT22;10442;49.932;11.592;2023-10-13T08:57:07;23.60;63.40
20568;DHT22;10442;49.932;11.592;2023-10-13T09:00:04;23.60;63.30
20568;DHT22;10442;49.932;11.592;2023-10-13T09:02:51;23.70;63.20
20568;DHT22;10442;49.932;11.592;2023-10-13T09:05:27;23.80;62.80
20568;DHT22;10442;49.932;11.592;2023-10-13T09:08:29;23.80;62.60
20568;DHT22;10442;49.932;11.592;2023-10-13T09:11:03;23.80;61.50
20568;DHT22;10442;49.932;11.592;2023-10-13T09:13:39;23.80;61.80
20568;DHT22;10442;49.932;11.592;2023-10-13T09:16:14;23.80;61.60
20568;DHT22;10442;49.932;11.592;2023-10-13T09:19:04;23.80;62.20
20568;DHT22;10442;49.932;11.592;2023-10-13T09:21:39;23.80;62.70
20568;DHT22;10442;49.932;11.592;2023-10-13T09:24:10;23.80;62.30
20568;DHT22;10442;49.932;11.592;2023-10-13T09:26:54;23.80;62.30
20568;DHT22;10442;49.932;11.592;2023-10-13T09:29:24;23.90;62.20
20568;DHT22;10442;49.932;11.592;2023-10-13T09:32:00;24.10;62.70
20568;DHT22;10442;49.932;11.592;2023-10-13T09:34:31;24.30;62.50
20568;DHT22;10442;49.932;11.592;2023-10-13T09:37:02;24.50;61.10
20568;DHT22;10442;49.932;11.592;2023-10-13T09:39:32;24.60;61.50
20568;DHT22;10442;49.932;11.592;2023-10-13T09:42:15;24.80;59.80
20568;DHT22;10442;49.932;11.592;2023-10-13T09:44:46;24.90;61.00
20568;DHT22;10442;49.932;11.592;2023-10-13T09:47:23;25.10;60.70
20568;DHT22;10442;49.932;11.592;2023-10-13T09:50:00;25.30;59.50
20568;DHT22;10442;49.932;11.592;2023-10-13T09:52:33;25.50;59.40
20568;DHT22;10442;49.932;11.592;2023-10-13T09:57:43;25.80;58.00
20568;DHT22;10442;49.932;11.592;2023-10-13T10:00:18;25.90;57.40
20568;DHT22;10442;49.932;11.592;2023-10-13T10:03:06;26.00;57.20
20568;DHT22;10442;49.932;11.592;2023-10-13T10:06:00;26.20;57.10
20568;DHT22;10442;49.932;11.592;2023-10-13T10:08:33;26.30;55.90
20568;DHT22;10442;49.932;11.592;2023-10-13T10:11:19;26.50;56.50
20568;DHT22;10442;49.932;11.592;2023-10-13T10:17:10;26.60;56.10
20568;DHT22;10442;49.932;11.592;2023-10-13T10:19:53;26.60;56.60
20568;DHT22;10442;49.932;11.592;2023-10-13T10:22:28;26.70;56.00
20568;DHT22;10442;49.932;11.592;2023-10-13T10:25:04;26.70;56.30
20568;DHT22;10442;49.932;11.592;2023-10-13T10:30:28;26.90;55.40
20568;DHT22;10442;49.932;11.592;2023-10-13T10:32:57;27.00;55.80
20568;DHT22;10442;49.932;11.592;2023-10-13T10:35:28;27.10;54.90
20568;DHT22;10442;49.932;11.592;2023-10-13T10:38:14;27.10;53.70
20568;DHT22;10442;49.932;11.592;2023-10-13T10:40:55;27.10;53.20
20568;DHT22;10442;49.932;11.592;2023-10-13T10:43:29;27.00;52.70
20568;DHT22;10442;49.932;11.592;2023-10-13T10:46:11;27.00;52.40
20568;DHT22;10442;49.932;11.592;2023-10-13T10:48:42;27.00;52.60
20568;DHT22;10442;49.932;11.592;2023-10-13T10:51:11;27.00;52.90
20568;DHT22;10442;49.932;11.592;2023-10-13T10:53:50;27.00;51.40
20568;DHT22;10442;49.932;11.592;2023-10-13T10:56:22;27.00;51.20
20568;DHT22;10442;49.932;11.592;2023-10-13T10:58:56;27.10;51.90
20568;DHT22;10442;49.932;11.592;2023-10-13T11:01:25;27.20;51.10
20568;DHT22;10442;49.932;11.592;2023-10-13T11:04:04;27.30;50.60
20568;DHT22;10442;49.932;11.592;2023-10-13T11:06:36;27.30;50.30
20568;DHT22;10442;49.932;11.592;2023-10-13T11:09:13;27.40;50.30
20568;DHT22;10442;49.932;11.592;2023-10-13T11:14:43;27.50;49.50
20568;DHT22;10442;49.932;11.592;2023-10-13T11:17:23;27.50;50.00
20568;DHT22;10442;49.932;11.592;2023-10-13T11:20:18;27.60;49.90
20568;DHT22;10442;49.932;11.592;2023-10-13T11:22:53;27.70;50.00
20568;DHT22;10442;49.932;11.592;2023-10-13T11:25:30;27.80;49.90
20568;DHT22;10442;49.932;11.592;2023-10-13T11:28:12;27.80;49.00
20568;DHT22;10442;49.932;11.592;2023-10-13T11:30:55;27.90;47.40
20568;DHT22;10442;49.932;11.592;2023-10-13T11:33:27;27.90;47.30
20568;DHT22;10442;49.932;11.592;2023-10-13T11:35:58;28.00;46.70
20568;DHT22;10442;49.932;11.592;2023-10-13T11:38:33;27.90;47.70
20568;DHT22;10442;49.932;11.592;2023-10-13T11:41:21;28.00;48.60
20568;DHT22;10442;49.932;11.592;2023-10-13T11:43:51;27.90;46.50
20568;DHT22;10442;49.932;11.592;2023-10-13T11:46:24;27.90;46.60
20568;DHT22;10442;49.932;11.592;2023-10-13T11:49:06;27.90;47.20
20568;DHT22;10442;49.932;11.592;2023-10-13T11:51:47;27.90;47.30
20568;DHT22;10442;49.932;11.592;2023-10-13T11:54:19;28.00;46.70
20568;DHT22;10442;49.932;11.592;2023-10-13T11:56:50;28.00;46.90
20568;DHT22;10442;49.932;11.592;2023-10-13T11:59:18;28.00;47.00
20568;DHT22;10442;49.932;11.592;2023-10-13T12:01:47;28.00;47.50
20568;DHT22;10442;49.932;11.592;2023-10-13T12:04:34;28.10;47.60
20568;DHT22;10442;49.932;11.592;2023-10-13T12:07:09;28.10;46.80
20568;DHT22;10442;49.932;11.592;2023-10-13T12:09:51;28.10;46.80
20568;DHT22;10442;49.932;11.592;2023-10-13T12:12:26;28.10;46.70
20568;DHT22;10442;49.932;11.592;2023-10-13T12:14:55;28.20;46.30
20568;DHT22;10442;49.932;11.592;2023-10-13T12:17:23;28.10;46.10
20568;DHT22;10442;49.932;11.592;2023-10-13T12:20:07;28.10;45.60
20568;DHT22;10442;49.932;11.592;2023-10-13T12:22:39;28.10;45.70
20568;DHT22;10442;49.932;11.592;2023-10-13T12:25:07;28.10;45.70
20568;DHT22;10442;49.932;11.592;2023-10-13T12:28:07;28.00;45.80
20568;DHT22;10442;49.932;11.592;2023-10-13T12:31:03;28.10;45.90
20568;DHT22;10442;49.932;11.592;2023-10-13T12:33:34;28.00;44.60
20568;DHT22;10442;49.932;11.592;2023-10-13T12:36:05;28.00;44.80
20568;DHT22;10442;49.932;11.592;2023-10-13T12:38:42;28.00;44.70
20568;DHT22;10442;49.932;11.592;2023-10-13T12:41:20;28.00;45.10
20568;DHT22;10442;49.932;11.592;2023-10-13T12:44:07;28.00;45.20
20568;DHT22;10442;49.932;11.592;2023-10-13T12:46:54;27.90;44.20
20568;DHT22;10442;49.932;11.592;2023-10-13T12:49:40;27.90;45.10
20568;DHT22;10442;49.932;11.592;2023-10-13T12:52:12;27.90;45.60
20568;DHT22;10442;49.932;11.592;2023-10-13T12:55:05;27.90;46.20
20568;DHT22;10442;49.932;11.592;2023-10-13T12:57:34;27.90;45.70
20568;DHT22;10442;49.932;11.592;2023-10-13T13:00:10;27.90;45.00
20568;DHT22;10442;49.932;11.592;2023-10-13T13:02:48;27.90;45.30
20568;DHT22;10442;49.932;11.592;2023-10-13T13:05:19;28.00;44.70
20568;DHT22;10442;49.932;11.592;2023-10-13T13:07:50;28.00;44.30
20568;DHT22;10442;49.932;11.592;2023-10-13T13:10:21;28.10;44.30
20568;DHT22;10442;49.932;11.592;2023-10-13T13:13:03;28.20;43.90
20568;DHT22;10442;49.932;11.592;2023-10-13T13:15:31;28.20;43.40
20568;DHT22;10442;49.932;11.592;2023-10-13T13:17:59;28.30;43.70
20568;DHT22;10442;49.932;11.592;2023-10-13T13:20:38;28.30;43.00
20568;DHT22;10442;49.932;11.592;2023-10-13T13:23:22;28.30;42.70
20568;DHT22;10442;49.932;11.592;2023-10-13T13:25:58;28.30;43.20
20568;DHT22;10442;49.932;11.592;2023-10-13T13:28:26;28.30;43.60
20568;DHT22;10442;49.932;11.592;2023-10-13T13:30:56;28.40;43.30
20568;DHT22;10442;49.932;11.592;2023-10-13T13:33:24;28.40;43.10
20568;DHT22;10442;49.932;11.592;2023-10-13T13:35:54;28.50;43.40
20568;DHT22;10442;49.932;11.592;2023-10-13T13:38:22;28.50;42.60
20568;DHT22;10442;49.932;11.592;2023-10-13T13:40:49;28.50;42.20
20568;DHT22;10442;49.932;11.592;2023-10-13T13:43:22;28.50;42.60
20568;DHT22;10442;49.932;11.592;2023-10-13T13:45:59;28.50;42.20
20568;DHT22;10442;49.932;11.592;2023-10-13T13:48:29;28.40;42.50
20568;DHT22;10442;49.932;11.592;2023-10-13T13:50:58;28.40;41.90
20568;DHT22;10442;49.932;11.592;2023-10-13T13:53:31;28.30;42.50
20568;DHT22;10442;49.932;11.592;2023-10-13T13:56:02;28.30;43.00
20568;DHT22;10442;49.932;11.592;2023-10-13T13:58:30;28.20;41.80
20568;DHT22;10442;49.932;11.592;2023-10-13T14:01:04;28.20;42.30
20568;DHT22;10442;49.932;11.592;2023-10-13T14:03:46;28.20;42.50
20568;DHT22;10442;49.932;11.592;2023-10-13T14:06:16;28.20;43.10
20568;DHT22;10442;49.932;11.592;2023-10-13T14:08:55;28.20;43.20
20568;DHT22;10442;49.932;11.592;2023-10-13T14:11:25;28.20;43.50
20568;DHT22;10442;49.932;11.592;2023-10-13T14:14:12;28.10;43.20
20568;DHT22;10442;49.932;11.592;2023-10-13T14:16:42;28.10;43.50
20568;DHT22;10442;49.932;11.592;2023-10-13T14:19:12;28.10;43.10
20568;DHT22;10442;49.932;11.592;2023-10-13T14:21:39;28.10;43.40
20568;DHT22;10442;49.932;11.592;2023-10-13T14:24:07;28.00;43.30
20568;DHT22;10442;49.932;11.592;2023-10-13T14:26:44;28.00;43.90
20568;DHT22;10442;49.932;11.592;2023-10-13T14:29:12;28.00;43.60
20568;DHT22;10442;49.932;11.592;2023-10-13T14:31:41;28.00;43.20
20568;DHT22;10442;49.932;11.592;2023-10-13T14:34:09;28.00;43.50
20568;DHT22;10442;49.932;11.592;2023-10-13T14:36:38;27.90;43.20
20568;DHT22;10442;49.932;11.592;2023-10-13T14:39:06;27.90;43.30
20568;DHT22;10442;49.932;11.592;2023-10-13T14:41:37;27.80;43.40
20568;DHT22;10442;49.932;11.592;2023-10-13T14:44:05;27.80;43.50
20568;DHT22;10442;49.932;11.592;2023-10-13T14:46:34;27.80;43.50
20568;DHT22;10442;49.932;11.592;2023-10-13T14:49:07;27.70;43.50
20568;DHT22;10442;49.932;11.592;2023-10-13T14:51:34;27.70;43.30
20568;DHT22;10442;49.932;11.592;2023-10-13T14:54:07;27.60;43.30
20568;DHT22;10442;49.932;11.592;2023-10-13T14:56:35;27.60;43.50
20568;DHT22;10442;49.932;11.592;2023-10-13T14:59:03;27.50;43.70
20568;DHT22;10442;49.932;11.592;2023-10-13T15:01:32;27.50;43.80
20568;DHT22;10442;49.932;11.592;2023-10-13T15:04:00;27.40;43.90
20568;DHT22;10442;49.932;11.592;2023-10-13T15:06:28;27.40;44.20
20568;DHT22;10442;49.932;11.592;2023-10-13T15:09:00;27.30;44.10
20568;DHT22;10442;49.932;11.592;2023-10-13T15:11:29;27.30;43.70
20568;DHT22;10442;49.932;11.592;2023-10-13T15:14:16;27.20;43.90
20568;DHT22;10442;49.932;11.592;2023-10-13T15:16:43;27.20;44.00
20568;DHT22;10442;49.932;11.592;2023-10-13T15:19:12;27.10;44.20
20568;DHT22;10442;49.932;11.592;2023-10-13T15:21:40;27.10;44.10
20568;DHT22;10442;49.932;11.592;2023-10-13T15:24:08;27.00;44.30
20568;DHT22;10442;49.932;11.592;2023-10-13T15:26:53;27.00;44.70
20568;DHT22;10442;49.932;11.592;2023-10-13T15:29:29;26.90;44.30
20568;DHT22;10442;49.932;11.592;2023-10-13T15:32:05;26.90;44.70
20568;DHT22;10442;49.932;11.592;2023-10-13T15:34:53;26.80;45.30
20568;DHT22;10442;49.932;11.592;2023-10-13T15:37:21;26.80;45.40
20568;DHT22;10442;49.932;11.592;2023-10-13T15:39:52;26.80;45.30
20568;DHT22;10442;49.932;11.592;2023-10-13T15:42:20;26.70;45.00
20568;DHT22;10442;49.932;11.592;2023-10-13T15:44:48;26.70;45.00
20568;DHT22;10442;49.932;11.592;2023-10-13T15:47:17;26.70;45.40
20568;DHT22;10442;49.932;11.592;2023-10-13T15:49:48;26.60;45.80
20568;DHT22;10442;49.932;11.592;2023-10-13T15:52:16;26.60;45.90
20568;DHT22;10442;49.932;11.592;2023-10-13T15:54:43;26.60;46.10
20568;DHT22;10442;49.932;11.592;2023-10-13T15:57:11;26.50;46.10
20568;DHT22;10442;49.932;11.592;2023-10-13T15:59:43;26.50;46.30
20568;DHT22;10442;49.932;11.592;2023-10-13T16:02:14;26.40;46.40
20568;DHT22;10442;49.932;11.592;2023-10-13T16:04:44;26.30;46.50
20568;DHT22;10442;49.932;11.592;2023-10-13T16:07:12;26.30;46.50
20568;DHT22;10442;49.932;11.592;2023-10-13T16:09:40;26.30;46.20
20568;DHT22;10442;49.932;11.592;2023-10-13T16:12:07;26.10;45.80
20568;DHT22;10442;49.932;11.592;2023-10-13T16:14:38;26.10;45.90
20568;DHT22;10442;49.932;11.592;2023-10-13T16:17:07;26.00;45.90
20568;DHT22;10442;49.932;11.592;2023-10-13T16:19:36;26.00;45.70
20568;DHT22;10442;49.932;11.592;2023-10-13T16:22:04;25.90;45.80
20568;DHT22;10442;49.932;11.592;2023-10-13T16:24:32;25.80;45.90